Time;durP1;ratioP1;P1;durP2;ratioP2;P2;SDS_P1;SDS_P2;PMS_P1;PMS_P2;Temp;Humidity;BMP_temperature;BMP_pressure;BME280_temperature;BME280_humidity;BME280_pressure;Samples;Min_cycle;Max_cycle;Signal;HPM_P1;HPM_P2
2021/04/03 00:00:13;;;;;;;37.40;22.13;;;;;;;;;;5057982;28;20071;-86
2021/04/03 00:02:39;;;;;;;35.90;22.40;;;;;;;;;;5057939;28;20475;-86
2021/04/03 00:05:06;;;;;;;35.50;22.05;;;;;;;;;;5058644;28;20310;-86
2021/04/03 00:07:33;;;;;;;32.50;21.15;;;;;;;;;;5057794;28;20430;-86
2021/04/03 00:09:59;;;;;;;37.80;21.92;;;;;;;;;;5057687;28;20037;-90
2021/04/03 00:12:25;;;;;;;36.42;22.00;;;;;;;;;;5056736;28;20407;-89
2021/04/03 00:14:51;;;;;;;31.33;21.00;;;;;;;;;;5057719;28;20430;-89
2021/04/03 00:17:17;;;;;;;36.88;22.05;;;;;;;;;;5057862;28;20063;-90
2021/04/03 00:19:43;;;;;;;33.92;21.15;;;;;;;;;;5057844;28;20032;-89
2021/04/03 00:22:09;;;;;;;36.80;21.55;;;;;;;;;;5057889;28;20025;-90
2021/04/03 00:24:35;;;;;;;34.40;20.15;;;;;;;;;;5056603;28;20036;-85
2021/04/03 00:27:01;;;;;;;30.73;19.35;;;;;;;;;;5057748;28;20071;-85
2021/04/03 00:29:27;;;;;;;32.47;20.15;;;;;;;;;;5057810;28;20029;-85
2021/04/03 00:31:53;;;;;;;33.10;19.60;;;;;;;;;;5057222;28;20036;-85
2021/04/03 00:34:20;;;;;;;30.92;19.05;;;;;;;;;;5057320;28;20025;-87
2021/04/03 00:36:46;;;;;;;32.15;19.67;;;;;;;;;;5057439;28;20052;-87
2021/04/03 00:39:12;;;;;;;29.45;17.98;;;;;;;;;;5057288;28;20041;-87
2021/04/03 00:41:38;;;;;;;32.58;17.70;;;;;;;;;;5057137;28;20036;-87
2021/04/03 00:44:06;;;;;;;31.70;18.98;;;;;;;;;;5059075;28;20021;-87
2021/04/03 00:46:32;;;;;;;32.67;19.10;;;;;;;;;;5061715;28;20032;-86
2021/04/03 00:48:58;;;;;;;33.30;20.50;;;;;;;;;;5060736;28;20017;-87
2021/04/03 00:54:28;;;;;;;38.78;22.23;;;;;;;;;;5061522;28;20067;-88
2021/04/03 00:56:54;;;;;;;38.10;23.27;;;;;;;;;;5061555;28;20045;-87
2021/04/03 00:59:20;;;;;;;34.22;22.45;;;;;;;;;;5061680;28;20036;-91
2021/04/03 01:01:46;;;;;;;41.55;23.65;;;;;;;;;;5061288;28;20029;-91
2021/04/03 01:04:13;;;;;;;41.80;24.00;;;;;;;;;;5061567;28;20031;-90
2021/04/03 01:06:39;;;;;;;49.05;26.10;;;;;;;;;;5060323;28;20029;-90
2021/04/03 01:09:05;;;;;;;44.78;25.80;;;;;;;;;;5060410;28;20033;-91
2021/04/03 01:11:33;;;;;;;48.33;27.85;;;;;;;;;;5060738;28;20100;-91
2021/04/03 01:14:08;;;;;;;51.15;26.85;;;;;;;;;;5060217;28;20028;-91
2021/04/03 01:16:38;;;;;;;43.92;26.90;;;;;;;;;;5061186;28;20346;-91
2021/04/03 01:19:23;;;;;;;43.75;25.83;;;;;;;;;;5060125;28;20028;-91
2021/04/03 01:22:04;;;;;;;45.45;25.95;;;;;;;;;;5060001;28;20059;-89
2021/04/03 01:24:37;;;;;;;37.85;23.65;;;;;;;;;;5060753;28;20033;-89
2021/04/03 01:27:03;;;;;;;;;;;;;;;;;;5061321;28;20021;-89
2021/04/03 01:29:29;;;;;;;39.45;24.85;;;;;;;;;;5060939;28;19901;-89
2021/04/03 01:32:00;;;;;;;47.72;27.20;;;;;;;;;;5061208;28;20027;-89
2021/04/03 01:34:28;;;;;;;50.60;26.77;;;;;;;;;;5061053;28;20017;-89
2021/04/03 01:37:04;;;;;;;44.80;26.55;;;;;;;;;;5060709;28;20029;-89
2021/04/03 01:39:31;;;;;;;38.97;24.65;;;;;;;;;;5060297;28;20080;-85
2021/04/03 01:42:02;;;;;;;42.78;26.50;;;;;;;;;;5060690;28;20028;-85
2021/04/03 01:44:31;;;;;;;42.75;26.05;;;;;;;;;;5060576;28;20029;-85
2021/04/03 01:46:58;;;;;;;41.08;25.30;;;;;;;;;;5060715;28;20021;-85
2021/04/03 01:49:24;;;;;;;41.08;25.65;;;;;;;;;;5060700;28;20071;-85
2021/04/03 01:51:51;;;;;;;43.83;26.48;;;;;;;;;;5060764;28;20021;-86
2021/04/03 01:54:18;;;;;;;45.28;27.95;;;;;;;;;;5060479;28;20020;-88
2021/04/03 01:56:46;;;;;;;42.28;25.17;;;;;;;;;;5060559;28;20032;-88
2021/04/03 01:59:14;;;;;;;42.08;24.48;;;;;;;;;;5060154;28;20402;-88
2021/04/03 02:01:42;;;;;;;39.50;24.42;;;;;;;;;;5059333;28;20048;-88
2021/04/03 02:04:09;;;;;;;43.88;25.20;;;;;;;;;;5060058;28;20116;-87
2021/04/03 02:06:40;;;;;;;47.78;27.40;;;;;;;;;;5060077;28;20048;-87
2021/04/03 02:09:07;;;;;;;46.97;26.38;;;;;;;;;;5059867;28;20414;-88
2021/04/03 02:11:34;;;;;;;49.22;27.90;;;;;;;;;;5060394;28;20028;-87
2021/04/03 02:14:01;;;;;;;40.90;25.70;;;;;;;;;;5059280;28;20060;-87
2021/04/03 02:16:29;;;;;;;40.83;24.38;;;;;;;;;;5059904;28;20025;-88
2021/04/03 02:18:57;;;;;;;42.65;24.15;;;;;;;;;;5058927;28;20033;-88
2021/04/03 02:21:23;;;;;;;41.60;24.67;;;;;;;;;;5059733;28;20124;-88
2021/04/03 02:26:52;;;;;;;33.42;21.17;;;;;;;;;;5059716;28;20031;-91
2021/04/03 02:29:18;;;;;;;36.22;21.30;;;;;;;;;;5058716;28;20120;-91
2021/04/03 02:31:44;;;;;;;35.22;20.05;;;;;;;;;;5059712;28;20029;-92
2021/04/03 02:34:11;;;;;;;34.67;20.92;;;;;;;;;;5059698;28;20465;-91
2021/04/03 02:36:37;;;;;;;33.92;20.65;;;;;;;;;;5059845;28;20052;-91
2021/04/03 02:42:22;;;;;;;38.10;20.80;;;;;;;;;;5059931;28;20051;-91
2021/04/03 02:44:52;;;;;;;31.60;19.90;;;;;;;;;;5059649;28;20033;-91
2021/04/03 02:47:22;;;;;;;31.15;18.88;;;;;;;;;;5059685;28;20063;-91
2021/04/03 02:49:52;;;;;;;27.73;18.40;;;;;;;;;;5059689;28;20032;-90
2021/04/03 02:52:38;;;;;;;26.20;17.38;;;;;;;;;;5058468;28;20024;-90
2021/04/03 02:55:06;;;;;;;27.17;17.75;;;;;;;;;;5059223;28;20407;-90
2021/04/03 02:57:33;;;;;;;29.33;18.40;;;;;;;;;;5059438;28;20070;-89
2021/04/03 03:00:01;;;;;;;26.75;16.55;;;;;;;;;;5059092;28;20116;-90
2021/04/03 03:02:28;;;;;;;24.00;16.55;;;;;;;;;;5058986;28;20482;-91
2021/04/03 03:04:54;;;;;;;27.30;17.38;;;;;;;;;;5059251;28;20037;-90
2021/04/03 03:07:23;;;;;;;26.55;15.35;;;;;;;;;;5058343;28;20021;-90
2021/04/03 03:09:50;;;;;;;24.55;15.38;;;;;;;;;;5057884;28;20029;-90
2021/04/03 03:12:17;;;;;;;24.58;16.15;;;;;;;;;;5058878;28;20108;-90
2021/04/03 03:14:44;;;;;;;30.85;16.02;;;;;;;;;;5059361;28;20028;-90
2021/04/03 03:17:12;;;;;;;24.75;15.45;;;;;;;;;;5059014;28;20303;-91
2021/04/03 03:19:39;;;;;;;23.10;14.18;;;;;;;;;;5057882;28;20521;-91
2021/04/03 03:22:05;;;;;;;19.58;13.00;;;;;;;;;;5058638;28;20441;-87
2021/04/03 03:24:32;;;;;;;22.95;12.25;;;;;;;;;;5058497;28;20053;-87
2021/04/03 03:26:59;;;;;;;20.40;12.27;;;;;;;;;;5058531;28;20407;-87
2021/04/03 03:29:26;;;;;;;20.33;11.82;;;;;;;;;;5057631;28;20098;-85
2021/04/03 03:31:52;;;;;;;22.50;13.48;;;;;;;;;;5058731;28;20311;-84
2021/04/03 03:34:18;;;;;;;20.13;11.68;;;;;;;;;;5058561;28;20071;-88
2021/04/03 03:36:44;;;;;;;17.48;11.75;;;;;;;;;;5058732;28;20029;-88
2021/04/03 03:39:29;;;;;;;20.88;11.80;;;;;;;;;;5058428;28;20060;-88
2021/04/03 03:41:57;;;;;;;18.85;10.95;;;;;;;;;;5058195;28;20339;-87
2021/04/03 03:44:24;;;;;;;16.25;10.75;;;;;;;;;;5057456;28;20124;-88
2021/04/03 03:46:50;;;;;;;16.05;10.93;;;;;;;;;;5058294;28;20021;-88
2021/04/03 03:49:16;;;;;;;22.17;11.88;;;;;;;;;;5058418;28;20021;-89
2021/04/03 03:51:42;;;;;;;17.73;10.88;;;;;;;;;;5058313;28;20021;-88
2021/04/03 03:54:26;;;;;;;19.02;11.30;;;;;;;;;;5058381;28;20032;-87
2021/04/03 03:56:52;;;;;;;19.67;11.48;;;;;;;;;;5058405;28;20067;-87
2021/04/03 03:59:18;;;;;;;18.35;11.80;;;;;;;;;;5057082;28;20079;-87
2021/04/03 04:01:44;;;;;;;19.15;11.27;;;;;;;;;;5058193;28;20044;-88
2021/04/03 04:04:11;;;;;;;24.90;13.55;;;;;;;;;;5058108;28;20020;-88
2021/04/03 04:06:37;;;;;;;20.10;12.43;;;;;;;;;;5058109;28;20025;-87
2021/04/03 04:12:07;;;;;;;21.08;11.95;;;;;;;;;;5058066;28;20032;-87
2021/04/03 04:14:34;;;;;;;16.73;10.80;;;;;;;;;;5058013;28;20032;-88
2021/04/03 04:17:00;;;;;;;17.95;11.38;;;;;;;;;;5056859;28;20343;-86
2021/04/03 04:19:26;;;;;;;19.63;12.52;;;;;;;;;;5057134;28;20070;-87
2021/04/03 04:21:52;;;;;;;19.98;11.75;;;;;;;;;;5056710;28;20029;-86
2021/04/03 04:27:22;;;;;;;18.05;11.68;;;;;;;;;;5057836;28;20028;-87
2021/04/03 04:29:48;;;;;;;18.27;12.02;;;;;;;;;;5057848;28;20028;-85
2021/04/03 04:32:15;;;;;;;17.73;11.48;;;;;;;;;;5057814;28;20347;-86
2021/04/03 04:34:41;;;;;;;18.10;12.20;;;;;;;;;;5056546;28;20482;-86
2021/04/03 04:37:07;;;;;;;20.42;11.77;;;;;;;;;;5057738;28;20323;-86
2021/04/03 04:42:39;;;;;;;18.75;12.35;;;;;;;;;;5054211;28;20052;-89
2021/04/03 04:45:06;;;;;;;23.60;13.30;;;;;;;;;;5057790;28;20418;-88
2021/04/03 04:47:32;;;;;;;23.95;13.82;;;;;;;;;;5057670;28;20100;-87
2021/04/03 04:49:58;;;;;;;23.33;13.35;;;;;;;;;;5057713;28;20021;-87
2021/04/03 04:52:24;;;;;;;23.90;13.88;;;;;;;;;;5056393;28;20025;-86
2021/04/03 04:54:50;;;;;;;22.25;14.25;;;;;;;;;;5057334;28;20100;-86
2021/04/03 04:57:16;;;;;;;23.13;14.98;;;;;;;;;;5057496;28;20078;-86
2021/04/03 04:59:42;;;;;;;22.77;16.15;;;;;;;;;;5057474;28;20025;-86
2021/04/03 05:02:08;;;;;;;23.90;14.65;;;;;;;;;;5057498;28;20033;-89
2021/04/03 05:04:34;;;;;;;21.70;14.30;;;;;;;;;;5056597;28;20029;-91
2021/04/03 05:07:00;;;;;;;25.38;14.48;;;;;;;;;;5056329;28;20022;-91
2021/04/03 05:09:27;;;;;;;20.73;13.68;;;;;;;;;;5057190;28;20362;-91
2021/04/03 05:11:53;;;;;;;23.25;14.32;;;;;;;;;;5057463;28;20116;-86
2021/04/03 05:14:19;;;;;;;22.48;14.60;;;;;;;;;;5057483;28;20021;-87
2021/04/03 05:16:45;;;;;;;20.35;13.35;;;;;;;;;;5057252;28;20075;-87
2021/04/03 05:19:11;;;;;;;15.48;12.10;;;;;;;;;;5057525;28;20339;-87
2021/04/03 05:21:37;;;;;;;22.60;13.90;;;;;;;;;;5056153;28;20105;-87
2021/04/03 05:24:03;;;;;;;22.50;14.40;;;;;;;;;;5056917;28;20418;-88
2021/04/03 05:26:29;;;;;;;20.83;13.45;;;;;;;;;;5056055;28;20417;-87
2021/04/03 05:28:55;;;;;;;22.27;14.25;;;;;;;;;;5057249;28;20028;-87
2021/04/03 05:31:21;;;;;;;22.48;14.77;;;;;;;;;;5060298;28;20031;-90
2021/04/03 05:33:48;;;;;;;22.77;14.57;;;;;;;;;;5059875;28;20031;-91
2021/04/03 05:36:14;;;;;;;23.42;13.63;;;;;;;;;;5060933;28;20021;-88
2021/04/03 05:38:41;;;;;;;22.83;15.20;;;;;;;;;;5060781;28;20028;-88
2021/04/03 05:41:07;;;;;;;24.05;16.10;;;;;;;;;;5060574;28;20163;-88
2021/04/03 05:43:34;;;;;;;22.23;14.80;;;;;;;;;;5060654;28;20407;-88
2021/04/03 05:46:00;;;;;;;27.85;16.60;;;;;;;;;;5060710;28;20021;-84
2021/04/03 05:48:27;;;;;;;31.40;18.73;;;;;;;;;;5060438;28;20116;-90
2021/04/03 05:50:57;;;;;;;28.50;18.33;;;;;;;;;;5060313;28;20112;-83
2021/04/03 05:59:30;;;;;;;27.75;17.40;;;;;;;;;;5060392;28;20039;-84
2021/04/03 06:01:56;;;;;;;30.90;18.70;;;;;;;;;;5059009;28;20025;-84
2021/04/03 06:04:22;;;;;;;38.08;23.17;;;;;;;;;;5059920;28;20025;-84
2021/04/03 06:06:49;;;;;;;38.58;23.52;;;;;;;;;;5060044;28;20028;-84
2021/04/03 06:09:15;;;;;;;29.33;18.27;;;;;;;;;;5059831;28;20033;-84
2021/04/03 06:11:51;;;;;;;22.67;15.07;;;;;;;;;;5059972;28;20021;-84
2021/04/03 06:14:17;;;;;;;26.05;16.23;;;;;;;;;;5059022;28;20065;-84
2021/04/03 06:16:43;;;;;;;28.70;16.60;;;;;;;;;;5059433;28;20025;-84
2021/04/03 06:19:10;;;;;;;27.58;16.10;;;;;;;;;;5059821;28;20028;-83
2021/04/03 06:21:36;;;;;;;22.63;15.60;;;;;;;;;;5058769;28;20028;-83
2021/04/03 06:24:03;;;;;;;33.08;18.83;;;;;;;;;;5059729;28;20032;-83
2021/04/03 06:26:29;;;;;;;29.00;17.35;;;;;;;;;;5059683;28;20025;-84
2021/04/03 06:28:58;;;;;;;25.60;15.70;;;;;;;;;;5059622;28;20075;-84
2021/04/03 06:31:26;;;;;;;24.15;16.13;;;;;;;;;;5058522;28;20036;-84
2021/04/03 06:33:52;;;;;;;24.08;16.23;;;;;;;;;;5059560;28;20024;-84
2021/04/03 06:36:18;;;;;;;34.45;20.83;;;;;;;;;;5059419;28;20029;-84
2021/04/03 06:39:21;;;;;;;32.05;19.83;;;;;;;;;;5059367;28;20415;-84
2021/04/03 06:41:47;;;;;;;38.72;22.40;;;;;;;;;;5058279;28;20427;-85
2021/04/03 06:44:14;;;;;;;32.65;19.17;;;;;;;;;;5058962;28;20034;-84
2021/04/03 06:46:44;;;;;;;33.42;20.55;;;;;;;;;;5058408;28;20032;-84
2021/04/03 06:49:10;;;;;;;31.25;19.25;;;;;;;;;;5059751;28;20021;-85
2021/04/03 06:51:37;;;;;;;36.40;23.58;;;;;;;;;;5059207;28;20025;-85
2021/04/03 06:54:21;;;;;;;36.63;23.33;;;;;;;;;;5058092;28;20107;-84
2021/04/03 06:56:48;;;;;;;27.50;17.48;;;;;;;;;;5059414;28;20028;-90
2021/04/03 06:59:14;;;;;;;28.52;18.58;;;;;;;;;;5057633;28;20045;-84
2021/04/03 07:01:40;;;;;;;34.30;23.55;;;;;;;;;;5059342;28;20017;-84
2021/04/03 07:04:10;;;;;;;37.55;24.80;;;;;;;;;;5059311;28;20339;-84
2021/04/03 07:06:37;;;;;;;32.08;22.17;;;;;;;;;;5059167;28;20021;-84
2021/04/03 07:09:04;;;;;;;29.30;20.67;;;;;;;;;;5059043;28;20029;-84
2021/04/03 07:11:31;;;;;;;24.63;16.73;;;;;;;;;;5059231;28;20029;-84
2021/04/03 07:13:59;;;;;;;20.33;12.57;;;;;;;;;;5040904;28;20427;-84
2021/04/03 07:16:26;;;;;;;24.08;13.90;;;;;;;;;;5058848;28;20285;-84
2021/04/03 07:18:52;;;;;;;19.40;12.75;;;;;;;;;;5059034;28;20052;-84
2021/04/03 07:21:19;;;;;;;24.27;15.40;;;;;;;;;;5058854;28;20021;-84
2021/04/03 07:24:05;;;;;;;38.72;22.05;;;;;;;;;;5057548;28;20419;-84
2021/04/03 07:26:31;;;;;;;39.17;22.85;;;;;;;;;;5057527;28;20036;-84
2021/04/03 07:28:57;;;;;;;57.78;33.00;;;;;;;;;;5058654;28;20047;-84
2021/04/03 07:31:46;;;;;;;45.90;27.58;;;;;;;;;;5058706;28;20028;-86
2021/04/03 07:34:13;;;;;;;38.22;25.83;;;;;;;;;;5057612;28;20024;-86
2021/04/03 07:36:41;;;;;;;33.03;21.27;;;;;;;;;;5058413;28;20429;-87
2021/04/03 07:42:30;;;;;;;30.70;20.08;;;;;;;;;;5052008;28;20052;-86
2021/04/03 07:44:56;;;;;;;33.80;22.08;;;;;;;;;;5058636;28;20090;-86
2021/04/03 07:47:23;;;;;;;31.70;20.15;;;;;;;;;;5058706;28;20029;-86
2021/04/03 07:49:49;;;;;;;30.45;19.55;;;;;;;;;;5057288;28;20028;-86
2021/04/03 07:52:15;;;;;;;30.42;19.25;;;;;;;;;;5058285;28;20147;-86
2021/04/03 08:00:49;;;;;;;115.03;40.80;;;;;;;;;;5058168;28;20430;-87
2021/04/03 08:03:19;;;;;;;23.30;13.63;;;;;;;;;;5057639;28;20067;-85
2021/04/03 08:05:48;;;;;;;35.28;17.92;;;;;;;;;;5057893;28;20025;-85
2021/04/03 08:08:14;;;;;;;35.53;16.30;;;;;;;;;;5057050;28;20378;-85
2021/04/03 08:10:41;;;;;;;34.70;16.52;;;;;;;;;;5056646;28;20128;-85
2021/04/03 08:13:07;;;;;;;23.45;14.45;;;;;;;;;;5057761;28;20032;-86
2021/04/03 08:15:34;;;;;;;20.10;14.48;;;;;;;;;;5057929;28;20338;-87
2021/04/03 08:18:00;;;;;;;18.80;12.95;;;;;;;;;;5057297;28;20025;-86
2021/04/03 08:20:26;;;;;;;16.85;12.88;;;;;;;;;;5058166;28;20051;-86
2021/04/03 08:23:05;;;;;;;16.83;11.98;;;;;;;;;;5057369;28;20025;-86
2021/04/03 08:25:32;;;;;;;15.85;10.95;;;;;;;;;;5057387;28;20052;-94
2021/04/03 08:27:59;;;;;;;16.13;11.38;;;;;;;;;;5057924;28;20025;-86
2021/04/03 08:30:32;;;;;;;19.85;13.40;;;;;;;;;;5057526;28;20021;-85
2021/04/03 08:33:05;;;;;;;26.23;15.70;;;;;;;;;;5056610;28;20032;-85
2021/04/03 08:35:31;;;;;;;32.15;19.48;;;;;;;;;;5057338;28;20457;-85
2021/04/03 08:38:10;;;;;;;24.05;16.02;;;;;;;;;;5056379;28;20044;-85
2021/04/03 08:40:55;;;;;;;50.97;30.80;;;;;;;;;;5057263;28;20032;-85
2021/04/03 08:43:26;;;;;;;32.22;20.63;;;;;;;;;;5057241;28;20399;-85
2021/04/03 08:45:52;;;;;;;19.00;13.02;;;;;;;;;;5056427;28;20029;-85
2021/04/03 08:48:18;;;;;;;18.65;13.18;;;;;;;;;;5055823;28;20036;-85
2021/04/03 08:50:46;;;;;;;38.70;25.95;;;;;;;;;;5038742;28;20359;-84
2021/04/03 08:53:12;;;;;;;19.85;14.75;;;;;;;;;;5036360;28;20079;-86
2021/04/03 08:55:38;;;;;;;19.42;12.10;;;;;;;;;;5037243;28;20096;-85
2021/04/03 08:58:05;;;;;;;19.88;11.90;;;;;;;;;;5037656;28;20018;-86
2021/04/03 09:00:31;;;;;;;18.80;12.77;;;;;;;;;;5037593;28;20022;-85
2021/04/03 09:02:59;;;;;;;16.17;10.77;;;;;;;;;;5036248;28;20419;-86
2021/04/03 09:05:25;;;;;;;17.25;11.20;;;;;;;;;;5039249;28;20036;-85
2021/04/03 09:07:51;;;;;;;19.98;10.82;;;;;;;;;;5041297;28;20067;-84
2021/04/03 09:13:21;;;;;;;17.48;11.88;;;;;;;;;;5041204;28;20075;-85
2021/04/03 09:15:47;;;;;;;26.45;17.67;;;;;;;;;;5041038;28;20104;-84
2021/04/03 09:18:14;;;;;;;17.50;12.57;;;;;;;;;;5040100;28;20021;-85
2021/04/03 09:20:47;;;;;;;19.38;13.23;;;;;;;;;;5040991;28;20029;-85
2021/04/03 09:23:13;;;;;;;22.08;14.75;;;;;;;;;;5041333;28;20033;-84
2021/04/03 09:28:43;;;;;;;24.45;14.80;;;;;;;;;;5041267;28;20028;-85
2021/04/03 09:31:10;;;;;;;24.83;15.57;;;;;;;;;;5040017;28;20057;-84
2021/04/03 09:33:47;;;;;;;25.40;16.17;;;;;;;;;;5040980;28;20032;-85
2021/04/03 09:36:16;;;;;;;22.30;14.00;;;;;;;;;;5040939;28;20025;-84
2021/04/03 09:38:52;;;;;;;25.60;15.10;;;;;;;;;;5040592;28;20416;-85
2021/04/03 09:41:30;;;;;;;21.67;14.63;;;;;;;;;;5040753;28;20029;-85
2021/04/03 09:43:57;;;;;;;22.45;16.05;;;;;;;;;;5040902;28;20087;-84
2021/04/03 09:46:23;;;;;;;23.85;15.70;;;;;;;;;;5040668;28;20017;-84
2021/04/03 09:48:50;;;;;;;22.38;16.00;;;;;;;;;;5039703;28;20411;-84
2021/04/03 09:51:16;;;;;;;26.00;16.25;;;;;;;;;;5040493;28;20426;-83
2021/04/03 09:53:43;;;;;;;20.05;14.40;;;;;;;;;;5040633;28;20357;-85
2021/04/03 09:56:09;;;;;;;23.52;16.05;;;;;;;;;;5039423;28;20033;-84
2021/04/03 09:58:35;;;;;;;21.50;14.48;;;;;;;;;;5040570;28;20030;-84
2021/04/03 10:01:03;;;;;;;22.25;14.75;;;;;;;;;;5039200;28;20436;-84
2021/04/03 10:03:30;;;;;;;21.58;15.18;;;;;;;;;;5040228;28;20087;-84
2021/04/03 10:05:56;;;;;;;20.80;14.82;;;;;;;;;;5040137;28;20029;-84
2021/04/03 10:08:22;;;;;;;20.88;14.80;;;;;;;;;;5040012;28;20426;-83
2021/04/03 10:10:48;;;;;;;20.63;15.35;;;;;;;;;;5040323;28;20116;-84
2021/04/03 10:13:14;;;;;;;46.45;29.70;;;;;;;;;;5039682;28;20060;-83
2021/04/03 10:15:41;;;;;;;30.02;20.02;;;;;;;;;;5039241;28;20105;-84
2021/04/03 10:18:07;;;;;;;23.17;16.00;;;;;;;;;;5038740;28;20072;-83
2021/04/03 10:20:33;;;;;;;21.30;16.02;;;;;;;;;;5045415;28;20089;-82
2021/04/03 10:22:59;;;;;;;22.30;15.27;;;;;;;;;;5055523;28;20047;-83
2021/04/03 10:25:25;;;;;;;21.90;14.90;;;;;;;;;;5050016;28;20049;-83
2021/04/03 10:27:51;;;;;;;20.15;15.27;;;;;;;;;;5055830;28;20315;-83
2021/04/03 10:30:18;;;;;;;23.95;15.45;;;;;;;;;;5055186;28;20033;-83
2021/04/03 10:32:44;;;;;;;18.83;14.32;;;;;;;;;;5050849;28;20021;-83
2021/04/03 10:35:11;;;;;;;21.98;15.32;;;;;;;;;;5050491;28;20117;-83
2021/04/03 10:37:37;;;;;;;24.70;16.92;;;;;;;;;;5048761;28;20028;-83
2021/04/03 10:40:04;;;;;;;25.98;17.08;;;;;;;;;;5049602;28;20600;-83
2021/04/03 10:42:30;;;;;;;59.10;36.88;;;;;;;;;;5072051;28;20052;-83
2021/04/03 10:44:56;;;;;;;25.60;18.27;;;;;;;;;;5058956;28;20029;-83
2021/04/03 10:47:22;;;;;;;52.42;34.03;;;;;;;;;;5058171;28;20025;-83
2021/04/03 10:49:48;;;;;;;36.60;25.85;;;;;;;;;;5058101;28;20071;-83
2021/04/03 10:52:14;;;;;;;44.78;30.63;;;;;;;;;;5059039;28;20025;-83
2021/04/03 10:54:40;;;;;;;35.20;24.02;;;;;;;;;;5059121;28;20027;-83
2021/04/03 10:57:06;;;;;;;23.63;17.35;;;;;;;;;;5059086;28;20028;-83
2021/04/03 10:59:32;;;;;;;28.67;21.25;;;;;;;;;;5059062;28;20040;-83
2021/04/03 11:01:58;;;;;;;100.40;46.08;;;;;;;;;;5058906;28;20017;-83
2021/04/03 11:04:24;;;;;;;26.85;18.02;;;;;;;;;;5058758;28;20028;-83
2021/04/03 11:06:51;;;;;;;24.85;16.40;;;;;;;;;;5059060;28;20032;-83
2021/04/03 11:09:17;;;;;;;26.02;16.55;;;;;;;;;;5058671;28;20061;-83
2021/04/03 11:11:43;;;;;;;25.48;18.40;;;;;;;;;;5058748;28;20036;-83
2021/04/03 11:14:09;;;;;;;28.70;18.77;;;;;;;;;;5058807;28;20036;-83
2021/04/03 11:16:35;;;;;;;25.17;17.33;;;;;;;;;;5058555;28;20032;-83
2021/04/03 11:19:01;;;;;;;31.23;19.40;;;;;;;;;;5058921;28;20023;-83
2021/04/03 11:21:27;;;;;;;23.90;17.77;;;;;;;;;;5058384;28;20131;-83
2021/04/03 11:23:53;;;;;;;29.80;20.52;;;;;;;;;;5058548;28;20021;-83
2021/04/03 11:26:19;;;;;;;25.00;17.73;;;;;;;;;;5057377;28;20025;-83
2021/04/03 11:28:45;;;;;;;28.20;19.23;;;;;;;;;;5058003;28;20068;-84
2021/04/03 11:31:11;;;;;;;27.73;19.35;;;;;;;;;;5057450;28;20367;-83
2021/04/03 11:33:37;;;;;;;27.77;18.48;;;;;;;;;;5058074;28;20074;-83
2021/04/03 11:36:04;;;;;;;29.88;19.63;;;;;;;;;;5057866;28;20032;-83
2021/04/03 11:38:30;;;;;;;23.40;16.58;;;;;;;;;;5053861;28;20060;-83
2021/04/03 11:40:56;;;;;;;28.73;19.23;;;;;;;;;;5057054;28;20025;-83
2021/04/03 11:43:23;;;;;;;25.58;17.02;;;;;;;;;;5058046;28;20049;-83
2021/04/03 11:45:49;;;;;;;30.95;21.63;;;;;;;;;;5056360;28;20045;-83
2021/04/03 11:48:15;;;;;;;38.03;23.98;;;;;;;;;;5057240;28;20037;-83
2021/04/03 11:50:41;;;;;;;28.52;18.70;;;;;;;;;;5056249;28;20052;-83
2021/04/03 11:53:07;;;;;;;41.13;27.75;;;;;;;;;;5056572;28;20056;-86
2021/04/03 11:55:33;;;;;;;33.65;21.08;;;;;;;;;;5055869;28;20035;-85
2021/04/03 11:57:59;;;;;;;25.77;18.88;;;;;;;;;;5055084;28;20020;-85
2021/04/03 12:00:26;;;;;;;34.38;22.48;;;;;;;;;;5057564;28;20319;-87
2021/04/03 12:02:52;;;;;;;41.90;26.20;;;;;;;;;;5051689;28;20014;-83
2021/04/03 12:05:19;;;;;;;51.92;33.22;;;;;;;;;;5036702;28;20140;-83
2021/04/03 12:07:45;;;;;;;38.80;25.23;;;;;;;;;;5038039;28;20047;-83
2021/04/03 12:10:14;;;;;;;33.60;22.98;;;;;;;;;;5037579;28;20029;-83
2021/04/03 12:12:40;;;;;;;54.53;35.85;;;;;;;;;;5037613;28;20052;-84
2021/04/03 12:15:11;;;;;;;28.13;20.20;;;;;;;;;;5036595;28;20037;-84
2021/04/03 12:17:37;;;;;;;26.10;18.30;;;;;;;;;;5037454;28;20133;-83
2021/04/03 12:20:05;;;;;;;29.90;20.48;;;;;;;;;;5037307;28;20033;-83
2021/04/03 12:22:31;;;;;;;54.67;38.90;;;;;;;;;;5036912;28;20359;-84
2021/04/03 12:24:57;;;;;;;27.10;18.05;;;;;;;;;;5037510;28;20025;-84
2021/04/03 12:27:24;;;;;;;25.02;19.05;;;;;;;;;;5037595;28;20033;-84
2021/04/03 12:29:50;;;;;;;25.98;18.45;;;;;;;;;;5037572;28;20091;-84
2021/04/03 12:32:16;;;;;;;21.83;16.73;;;;;;;;;;5036156;28;20091;-83
2021/04/03 12:34:43;;;;;;;22.67;16.55;;;;;;;;;;5037194;28;20029;-83
2021/04/03 12:37:09;;;;;;;21.58;16.00;;;;;;;;;;5037594;28;20076;-83
2021/04/03 12:39:36;;;;;;;20.20;15.23;;;;;;;;;;5035053;28;20116;-83
2021/04/03 12:42:02;;;;;;;21.48;15.35;;;;;;;;;;5037088;28;20050;-83
2021/04/03 12:44:28;;;;;;;22.90;16.15;;;;;;;;;;5037373;28;20044;-83
2021/04/03 12:46:54;;;;;;;19.73;15.02;;;;;;;;;;5037604;28;20022;-83
2021/04/03 12:49:20;;;;;;;25.48;16.70;;;;;;;;;;5037488;28;20026;-84
2021/04/03 12:51:47;;;;;;;20.48;14.93;;;;;;;;;;5037016;28;20028;-84
2021/04/03 12:54:13;;;;;;;21.75;15.68;;;;;;;;;;5036197;28;20041;-85
2021/04/03 12:56:39;;;;;;;22.48;16.70;;;;;;;;;;5037511;28;20018;-84
2021/04/03 12:59:05;;;;;;;20.35;15.15;;;;;;;;;;5036413;28;20021;-84
2021/04/03 13:01:31;;;;;;;21.45;14.50;;;;;;;;;;5037352;28;20053;-84
2021/04/03 13:03:58;;;;;;;19.70;13.82;;;;;;;;;;5036148;28;20036;-84
2021/04/03 13:06:24;;;;;;;22.42;13.70;;;;;;;;;;5035959;28;20037;-84
2021/04/03 13:08:50;;;;;;;20.33;14.65;;;;;;;;;;5036837;28;20013;-84
2021/04/03 13:11:16;;;;;;;22.33;15.15;;;;;;;;;;5037047;28;20543;-84
2021/04/03 13:13:42;;;;;;;16.27;12.52;;;;;;;;;;5037414;28;20097;-84
2021/04/03 13:16:08;;;;;;;24.80;16.02;;;;;;;;;;5037094;28;20033;-86
2021/04/03 13:18:34;;;;;;;18.52;13.13;;;;;;;;;;5037344;28;20159;-86
2021/04/03 13:21:00;;;;;;;18.75;13.68;;;;;;;;;;5037335;28;20044;-87
2021/04/03 13:23:26;;;;;;;30.60;18.38;;;;;;;;;;5036066;28;20033;-84
2021/04/03 13:26:11;;;;;;;22.05;13.85;;;;;;;;;;5037332;28;20021;-84
2021/04/03 13:28:37;;;;;;;16.63;12.00;;;;;;;;;;5047596;28;20235;-83
2021/04/03 13:31:03;;;;;;;15.32;11.10;;;;;;;;;;5045139;28;20340;-84
2021/04/03 13:33:29;;;;;;;16.05;11.85;;;;;;;;;;5052793;28;20033;-84
2021/04/03 13:35:55;;;;;;;18.25;12.32;;;;;;;;;;5056753;28;20029;-84
2021/04/03 13:38:22;;;;;;;14.30;10.52;;;;;;;;;;5055847;28;20079;-84
2021/04/03 13:40:48;;;;;;;14.18;10.20;;;;;;;;;;5057011;28;20033;-85
2021/04/03 13:43:14;;;;;;;15.90;11.40;;;;;;;;;;5055774;28;20048;-85
2021/04/03 13:45:40;;;;;;;16.90;11.02;;;;;;;;;;5056779;28;20422;-85
2021/04/03 13:48:07;;;;;;;17.60;10.98;;;;;;;;;;5056958;28;20037;-85
2021/04/03 13:50:33;;;;;;;15.90;11.35;;;;;;;;;;5056342;28;20076;-85
2021/04/03 13:52:59;;;;;;;22.60;12.98;;;;;;;;;;5060570;28;20025;-85
2021/04/03 13:55:25;;;;;;;20.65;12.88;;;;;;;;;;5060206;28;20021;-85
2021/04/03 13:57:51;;;;;;;22.73;12.60;;;;;;;;;;5059582;28;20033;-85
2021/04/03 14:00:18;;;;;;;24.50;13.98;;;;;;;;;;5060306;28;20021;-84
2021/04/03 14:02:44;;;;;;;20.92;11.15;;;;;;;;;;5060045;28;20025;-85
2021/04/03 14:05:10;;;;;;;14.43;8.30;;;;;;;;;;5059208;28;20041;-84
2021/04/03 14:07:36;;;;;;;14.38;8.65;;;;;;;;;;5060100;28;20029;-87
2021/04/03 14:10:03;;;;;;;15.13;8.85;;;;;;;;;;5059236;28;20288;-87
2021/04/03 14:12:29;;;;;;;16.38;9.07;;;;;;;;;;5059648;28;20086;-87
2021/04/03 14:14:55;;;;;;;13.20;8.65;;;;;;;;;;5050287;28;20066;-87
2021/04/03 14:17:21;;;;;;;13.80;8.13;;;;;;;;;;5050588;28;20425;-87
2021/04/03 14:19:47;;;;;;;13.07;7.93;;;;;;;;;;5049570;28;20373;-86
2021/04/03 14:22:13;;;;;;;12.48;7.68;;;;;;;;;;5050643;28;20021;-86
2021/04/03 14:24:39;;;;;;;11.65;6.95;;;;;;;;;;5048626;28;20108;-86
2021/04/03 14:27:06;;;;;;;15.48;7.90;;;;;;;;;;5047143;28;20040;-86
2021/04/03 14:29:32;;;;;;;13.27;7.88;;;;;;;;;;5050159;28;20021;-87
2021/04/03 14:31:58;;;;;;;10.43;7.32;;;;;;;;;;5059382;28;20115;-86
2021/04/03 14:34:24;;;;;;;12.48;7.03;;;;;;;;;;5059219;28;20419;-87
2021/04/03 14:36:51;;;;;;;12.52;7.43;;;;;;;;;;5058722;28;20025;-87
2021/04/03 14:39:18;;;;;;;14.43;8.48;;;;;;;;;;5059738;28;20147;-87
2021/04/03 14:41:44;;;;;;;10.63;7.47;;;;;;;;;;5058012;28;20268;-86
2021/04/03 14:44:12;;;;;;;10.20;7.25;;;;;;;;;;5059584;28;20351;-86
2021/04/03 14:46:39;;;;;;;11.75;6.50;;;;;;;;;;5059496;28;20289;-86
2021/04/03 14:49:05;;;;;;;16.25;7.35;;;;;;;;;;5059184;28;20028;-86
2021/04/03 14:51:31;;;;;;;10.23;6.57;;;;;;;;;;5059121;28;20029;-85
2021/04/03 14:53:57;;;;;;;13.85;6.82;;;;;;;;;;5059106;28;20104;-86
2021/04/03 14:56:23;;;;;;;9.05;6.53;;;;;;;;;;5059156;28;20402;-85
2021/04/03 14:58:49;;;;;;;11.77;5.63;;;;;;;;;;5059419;28;20021;-85